Potato Creek, South Dakota
Current Conditions -  °F | °C
As of 10:55 AM on Sunday 21 Dec 2014 (Local Time) from KPHP Reporting Station
Clear Clear  
Wind Chill: 42°   Ceiling: Unl
Heat Index: 42°   Visibility: 10mi
Dew Point: 30°   Wind: 3mph
Humidity: 62%   Direction: 80°E
Pressure: 29.46"   Gusts: NA
Location:  43.7587°N, 101.898°W
Report Text: KPHP 211755Z AUTO 08003KT 10SM CLR 06/M01 A2946 RMK AO2 SLP988 I6001 T00561011 10056 21094 58031
Loading
Personal Weather Stations






























Interactive Weather Map New forecast layout! Learn more

10-Day Weather Forecast

Advertisements
Track Severe Weather on mobile